sensor_id;sensor_type;location;lat;lon;timestamp;temperature;humidity
57242;DHT22;43095;53.302;5.786;2023-12-14T00:01:57;4.30;99.20
57242;DHT22;43095;53.302;5.786;2023-12-14T00:04:24;4.30;99.20
57242;DHT22;43095;53.302;5.786;2023-12-14T00:06:53;4.30;99.40
57242;DHT22;43095;53.302;5.786;2023-12-14T00:09:21;4.30;99.60
57242;DHT22;43095;53.302;5.786;2023-12-14T00:11:48;4.30;99.60
57242;DHT22;43095;53.302;5.786;2023-12-14T00:14:15;4.30;99.60
57242;DHT22;43095;53.302;5.786;2023-12-14T00:16:42;4.30;99.40
57242;DHT22;43095;53.302;5.786;2023-12-14T00:19:09;4.30;99.30
57242;DHT22;43095;53.302;5.786;2023-12-14T00:21:37;4.30;99.60
57242;DHT22;43095;53.302;5.786;2023-12-14T00:24:04;4.30;99.50
57242;DHT22;43095;53.302;5.786;2023-12-14T00:26:31;4.30;99.20
57242;DHT22;43095;53.302;5.786;2023-12-14T00:28:59;4.20;99.10
57242;DHT22;43095;53.302;5.786;2023-12-14T00:31:28;4.30;99.10
57242;DHT22;43095;53.302;5.786;2023-12-14T00:33:55;4.30;98.90
57242;DHT22;43095;53.302;5.786;2023-12-14T00:36:23;4.20;98.80
57242;DHT22;43095;53.302;5.786;2023-12-14T00:38:50;4.30;99.10
57242;DHT22;43095;53.302;5.786;2023-12-14T00:41:18;4.20;99.00
57242;DHT22;43095;53.302;5.786;2023-12-14T00:43:45;4.20;99.10
57242;DHT22;43095;53.302;5.786;2023-12-14T00:46:13;4.30;99.10
57242;DHT22;43095;53.302;5.786;2023-12-14T00:48:40;4.20;99.10
57242;DHT22;43095;53.302;5.786;2023-12-14T00:51:09;4.20;98.90
57242;DHT22;43095;53.302;5.786;2023-12-14T00:53:36;4.20;98.50
57242;DHT22;43095;53.302;5.786;2023-12-14T00:56:04;4.20;98.60
57242;DHT22;43095;53.302;5.786;2023-12-14T00:58:31;4.20;98.60
57242;DHT22;43095;53.302;5.786;2023-12-14T01:00:58;4.20;98.50
57242;DHT22;43095;53.302;5.786;2023-12-14T01:03:28;4.20;98.60
57242;DHT22;43095;53.302;5.786;2023-12-14T01:05:56;4.20;98.70
57242;DHT22;43095;53.302;5.786;2023-12-14T01:08:23;4.20;98.80
57242;DHT22;43095;53.302;5.786;2023-12-14T01:10:50;4.20;98.50
57242;DHT22;43095;53.302;5.786;2023-12-14T01:13:17;4.20;98.60
57242;DHT22;43095;53.302;5.786;2023-12-14T01:15:45;4.20;98.40
57242;DHT22;43095;53.302;5.786;2023-12-14T01:18:12;4.20;98.40
57242;DHT22;43095;53.302;5.786;2023-12-14T01:20:40;4.20;98.30
57242;DHT22;43095;53.302;5.786;2023-12-14T01:23:07;4.20;98.20
57242;DHT22;43095;53.302;5.786;2023-12-14T01:25:36;4.20;97.90
57242;DHT22;43095;53.302;5.786;2023-12-14T01:28:03;4.20;97.80
57242;DHT22;43095;53.302;5.786;2023-12-14T01:30:31;4.20;98.00
57242;DHT22;43095;53.302;5.786;2023-12-14T01:32:58;4.20;98.20
57242;DHT22;43095;53.302;5.786;2023-12-14T01:35:25;4.20;97.80
57242;DHT22;43095;53.302;5.786;2023-12-14T01:37:52;4.20;97.50
57242;DHT22;43095;53.302;5.786;2023-12-14T01:40:19;4.20;97.30
57242;DHT22;43095;53.302;5.786;2023-12-14T01:42:47;4.20;97.20
57242;DHT22;43095;53.302;5.786;2023-12-14T01:45:14;4.20;97.30
57242;DHT22;43095;53.302;5.786;2023-12-14T01:47:43;4.20;97.20
57242;DHT22;43095;53.302;5.786;2023-12-14T01:50:10;4.30;97.40
57242;DHT22;43095;53.302;5.786;2023-12-14T01:52:38;4.20;97.30
57242;DHT22;43095;53.302;5.786;2023-12-14T01:55:05;4.20;97.50
57242;DHT22;43095;53.302;5.786;2023-12-14T01:57:33;4.20;97.70
57242;DHT22;43095;53.302;5.786;2023-12-14T02:00:00;4.20;97.90
57242;DHT22;43095;53.302;5.786;2023-12-14T02:02:27;4.30;98.00
57242;DHT22;43095;53.302;5.786;2023-12-14T02:04:54;4.20;98.00
57242;DHT22;43095;53.302;5.786;2023-12-14T02:07:21;4.20;97.90
57242;DHT22;43095;53.302;5.786;2023-12-14T02:09:49;4.20;98.00
57242;DHT22;43095;53.302;5.786;2023-12-14T02:12:17;4.20;98.00
57242;DHT22;43095;53.302;5.786;2023-12-14T02:14:44;4.30;98.10
57242;DHT22;43095;53.302;5.786;2023-12-14T02:17:11;4.30;98.20
57242;DHT22;43095;53.302;5.786;2023-12-14T02:19:38;4.20;97.80
57242;DHT22;43095;53.302;5.786;2023-12-14T02:22:06;4.20;97.50
57242;DHT22;43095;53.302;5.786;2023-12-14T02:24:33;4.20;97.30
57242;DHT22;43095;53.302;5.786;2023-12-14T02:27:03;4.20;97.20
57242;DHT22;43095;53.302;5.786;2023-12-14T02:29:30;4.20;97.20
57242;DHT22;43095;53.302;5.786;2023-12-14T02:31:58;4.20;97.30
57242;DHT22;43095;53.302;5.786;2023-12-14T02:34:25;4.20;97.50
57242;DHT22;43095;53.302;5.786;2023-12-14T02:36:52;4.20;97.30
57242;DHT22;43095;53.302;5.786;2023-12-14T02:39:20;4.20;97.30
57242;DHT22;43095;53.302;5.786;2023-12-14T02:41:47;4.20;97.30
57242;DHT22;43095;53.302;5.786;2023-12-14T02:44:14;4.20;97.50
57242;DHT22;43095;53.302;5.786;2023-12-14T02:46:41;4.20;97.70
57242;DHT22;43095;53.302;5.786;2023-12-14T02:49:08;4.20;97.90
57242;DHT22;43095;53.302;5.786;2023-12-14T02:51:36;4.20;98.10
57242;DHT22;43095;53.302;5.786;2023-12-14T02:54:03;4.20;98.10
57242;DHT22;43095;53.302;5.786;2023-12-14T02:56:30;4.20;98.30
57242;DHT22;43095;53.302;5.786;2023-12-14T02:58:57;4.20;98.30
57242;DHT22;43095;53.302;5.786;2023-12-14T03:01:24;4.20;98.50
57242;DHT22;43095;53.302;5.786;2023-12-14T03:03:51;4.20;98.60
57242;DHT22;43095;53.302;5.786;2023-12-14T03:06:19;4.20;98.30
57242;DHT22;43095;53.302;5.786;2023-12-14T03:08:49;4.20;98.40
57242;DHT22;43095;53.302;5.786;2023-12-14T03:11:23;4.20;98.10
57242;DHT22;43095;53.302;5.786;2023-12-14T03:13:50;4.20;98.30
57242;DHT22;43095;53.302;5.786;2023-12-14T03:16:18;4.20;98.30
57242;DHT22;43095;53.302;5.786;2023-12-14T03:18:46;4.20;98.50
57242;DHT22;43095;53.302;5.786;2023-12-14T03:21:13;4.20;98.60
57242;DHT22;43095;53.302;5.786;2023-12-14T03:23:40;4.20;98.70
57242;DHT22;43095;53.302;5.786;2023-12-14T03:26:07;4.20;98.70
57242;DHT22;43095;53.302;5.786;2023-12-14T03:28:35;4.20;98.80
57242;DHT22;43095;53.302;5.786;2023-12-14T03:31:02;4.20;98.90
57242;DHT22;43095;53.302;5.786;2023-12-14T03:33:30;4.20;98.90
57242;DHT22;43095;53.302;5.786;2023-12-14T03:35:57;4.20;98.90
57242;DHT22;43095;53.302;5.786;2023-12-14T03:38:24;4.20;98.90
57242;DHT22;43095;53.302;5.786;2023-12-14T03:40:51;4.20;99.00
57242;DHT22;43095;53.302;5.786;2023-12-14T03:43:19;4.20;99.00
57242;DHT22;43095;53.302;5.786;2023-12-14T03:45:46;4.20;99.10
57242;DHT22;43095;53.302;5.786;2023-12-14T03:48:13;4.20;99.00
57242;DHT22;43095;53.302;5.786;2023-12-14T03:50:40;4.20;99.10
57242;DHT22;43095;53.302;5.786;2023-12-14T03:53:07;4.20;98.90
57242;DHT22;43095;53.302;5.786;2023-12-14T03:55:35;4.20;99.10
57242;DHT22;43095;53.302;5.786;2023-12-14T03:58:02;4.20;99.00
57242;DHT22;43095;53.302;5.786;2023-12-14T04:00:29;4.20;99.00
57242;DHT22;43095;53.302;5.786;2023-12-14T04:02:56;4.20;98.90
57242;DHT22;43095;53.302;5.786;2023-12-14T04:05:24;4.20;99.00
57242;DHT22;43095;53.302;5.786;2023-12-14T04:07:51;4.20;99.10
57242;DHT22;43095;53.302;5.786;2023-12-14T04:10:18;4.20;99.10
57242;DHT22;43095;53.302;5.786;2023-12-14T04:12:45;4.20;99.20
57242;DHT22;43095;53.302;5.786;2023-12-14T04:15:13;4.20;99.10
57242;DHT22;43095;53.302;5.786;2023-12-14T04:17:40;4.20;99.20
57242;DHT22;43095;53.302;5.786;2023-12-14T04:20:07;4.20;99.30
57242;DHT22;43095;53.302;5.786;2023-12-14T04:22:35;4.20;99.40
57242;DHT22;43095;53.302;5.786;2023-12-14T04:25:03;4.20;99.40
57242;DHT22;43095;53.302;5.786;2023-12-14T04:27:30;4.20;99.50
57242;DHT22;43095;53.302;5.786;2023-12-14T04:29:58;4.20;99.50
57242;DHT22;43095;53.302;5.786;2023-12-14T04:32:25;4.20;99.50
57242;DHT22;43095;53.302;5.786;2023-12-14T04:34:52;4.20;99.60
57242;DHT22;43095;53.302;5.786;2023-12-14T04:37:19;4.20;99.50
57242;DHT22;43095;53.302;5.786;2023-12-14T04:39:47;4.20;99.50
57242;DHT22;43095;53.302;5.786;2023-12-14T04:42:14;4.20;99.50
57242;DHT22;43095;53.302;5.786;2023-12-14T04:44:41;4.20;99.50
57242;DHT22;43095;53.302;5.786;2023-12-14T04:47:08;4.20;99.60
57242;DHT22;43095;53.302;5.786;2023-12-14T04:49:35;4.20;99.50
57242;DHT22;43095;53.302;5.786;2023-12-14T04:52:03;4.20;99.60
57242;DHT22;43095;53.302;5.786;2023-12-14T04:54:31;4.20;99.50
57242;DHT22;43095;53.302;5.786;2023-12-14T04:56:58;4.20;99.50
57242;DHT22;43095;53.302;5.786;2023-12-14T04:59:25;4.20;99.40
57242;DHT22;43095;53.302;5.786;2023-12-14T05:01:53;4.20;99.40
57242;DHT22;43095;53.302;5.786;2023-12-14T05:04:20;4.20;99.40
57242;DHT22;43095;53.302;5.786;2023-12-14T05:06:47;4.20;99.50
57242;DHT22;43095;53.302;5.786;2023-12-14T05:09:14;4.20;99.40
57242;DHT22;43095;53.302;5.786;2023-12-14T05:11:42;4.20;99.20
57242;DHT22;43095;53.302;5.786;2023-12-14T05:14:09;4.20;99.30
57242;DHT22;43095;53.302;5.786;2023-12-14T05:16:37;4.20;99.40
57242;DHT22;43095;53.302;5.786;2023-12-14T05:19:04;4.20;99.40
57242;DHT22;43095;53.302;5.786;2023-12-14T05:21:31;4.20;99.40
57242;DHT22;43095;53.302;5.786;2023-12-14T05:23:59;4.20;99.40
57242;DHT22;43095;53.302;5.786;2023-12-14T05:26:26;4.20;99.40
57242;DHT22;43095;53.302;5.786;2023-12-14T05:28:53;4.20;99.30
57242;DHT22;43095;53.302;5.786;2023-12-14T05:31:21;4.20;99.40
57242;DHT22;43095;53.302;5.786;2023-12-14T05:33:48;4.20;99.30
57242;DHT22;43095;53.302;5.786;2023-12-14T05:36:15;4.20;99.30
57242;DHT22;43095;53.302;5.786;2023-12-14T05:38:43;4.20;99.40
57242;DHT22;43095;53.302;5.786;2023-12-14T05:41:10;4.20;99.50
57242;DHT22;43095;53.302;5.786;2023-12-14T05:43:37;4.20;99.50
57242;DHT22;43095;53.302;5.786;2023-12-14T05:46:05;4.20;99.50
57242;DHT22;43095;53.302;5.786;2023-12-14T05:48:32;4.20;99.50
57242;DHT22;43095;53.302;5.786;2023-12-14T05:51:00;4.20;99.50
57242;DHT22;43095;53.302;5.786;2023-12-14T05:53:28;4.20;99.60
57242;DHT22;43095;53.302;5.786;2023-12-14T05:55:55;4.20;99.60
57242;DHT22;43095;53.302;5.786;2023-12-14T05:58:23;4.20;99.70
57242;DHT22;43095;53.302;5.786;2023-12-14T06:00:50;4.20;99.70
57242;DHT22;43095;53.302;5.786;2023-12-14T06:03:17;4.20;99.70
57242;DHT22;43095;53.302;5.786;2023-12-14T06:05:44;4.20;99.80
57242;DHT22;43095;53.302;5.786;2023-12-14T06:08:12;4.20;99.80
57242;DHT22;43095;53.302;5.786;2023-12-14T06:10:39;4.20;99.90
57242;DHT22;43095;53.302;5.786;2023-12-14T06:13:06;4.20;99.80
57242;DHT22;43095;53.302;5.786;2023-12-14T06:15:33;4.20;99.90
57242;DHT22;43095;53.302;5.786;2023-12-14T06:18:00;4.20;99.90
57242;DHT22;43095;53.302;5.786;2023-12-14T06:20:28;4.20;99.90
57242;DHT22;43095;53.302;5.786;2023-12-14T06:22:55;4.20;99.90
57242;DHT22;43095;53.302;5.786;2023-12-14T06:25:22;4.30;99.90
57242;DHT22;43095;53.302;5.786;2023-12-14T06:27:49;4.30;99.90
57242;DHT22;43095;53.302;5.786;2023-12-14T06:30:17;4.30;99.90
57242;DHT22;43095;53.302;5.786;2023-12-14T06:32:44;4.30;99.90
57242;DHT22;43095;53.302;5.786;2023-12-14T06:35:11;4.30;99.90
57242;DHT22;43095;53.302;5.786;2023-12-14T06:37:40;4.30;99.90
57242;DHT22;43095;53.302;5.786;2023-12-14T06:40:09;4.20;99.90
57242;DHT22;43095;53.302;5.786;2023-12-14T06:42:37;4.30;99.90
57242;DHT22;43095;53.302;5.786;2023-12-14T06:45:05;4.30;99.90
57242;DHT22;43095;53.302;5.786;2023-12-14T06:47:33;4.30;99.90
57242;DHT22;43095;53.302;5.786;2023-12-14T06:50:00;4.30;99.90
57242;DHT22;43095;53.302;5.786;2023-12-14T06:52:28;4.30;99.90
57242;DHT22;43095;53.302;5.786;2023-12-14T06:54:56;4.30;99.90
57242;DHT22;43095;53.302;5.786;2023-12-14T06:57:23;4.30;99.90
57242;DHT22;43095;53.302;5.786;2023-12-14T06:59:53;4.30;99.90
57242;DHT22;43095;53.302;5.786;2023-12-14T07:02:20;4.30;99.90
57242;DHT22;43095;53.302;5.786;2023-12-14T07:04:47;4.30;99.90
57242;DHT22;43095;53.302;5.786;2023-12-14T07:07:15;4.30;99.90
57242;DHT22;43095;53.302;5.786;2023-12-14T07:09:42;4.30;99.90
57242;DHT22;43095;53.302;5.786;2023-12-14T07:12:12;4.30;99.90
57242;DHT22;43095;53.302;5.786;2023-12-14T07:14:40;4.30;99.90
57242;DHT22;43095;53.302;5.786;2023-12-14T07:17:07;4.40;99.90
57242;DHT22;43095;53.302;5.786;2023-12-14T07:19:35;4.40;99.90
57242;DHT22;43095;53.302;5.786;2023-12-14T07:22:02;4.40;99.90
57242;DHT22;43095;53.302;5.786;2023-12-14T07:24:30;4.40;99.90
57242;DHT22;43095;53.302;5.786;2023-12-14T07:27:14;4.40;99.90
57242;DHT22;43095;53.302;5.786;2023-12-14T07:29:41;4.40;99.90
57242;DHT22;43095;53.302;5.786;2023-12-14T07:32:08;4.40;99.90
57242;DHT22;43095;53.302;5.786;2023-12-14T07:34:35;4.40;99.90
57242;DHT22;43095;53.302;5.786;2023-12-14T07:37:03;4.40;99.90
57242;DHT22;43095;53.302;5.786;2023-12-14T07:39:30;4.40;99.90
57242;DHT22;43095;53.302;5.786;2023-12-14T07:41:57;4.40;99.90
57242;DHT22;43095;53.302;5.786;2023-12-14T07:44:25;4.40;99.90
57242;DHT22;43095;53.302;5.786;2023-12-14T07:46:52;4.40;99.90
57242;DHT22;43095;53.302;5.786;2023-12-14T07:49:19;4.40;99.90
57242;DHT22;43095;53.302;5.786;2023-12-14T07:51:49;4.40;99.90
57242;DHT22;43095;53.302;5.786;2023-12-14T07:54:16;4.40;99.90
57242;DHT22;43095;53.302;5.786;2023-12-14T07:56:44;4.40;99.90
57242;DHT22;43095;53.302;5.786;2023-12-14T07:59:11;4.40;99.90
57242;DHT22;43095;53.302;5.786;2023-12-14T08:01:39;4.40;99.90
57242;DHT22;43095;53.302;5.786;2023-12-14T08:04:06;4.40;99.90
57242;DHT22;43095;53.302;5.786;2023-12-14T08:06:35;4.40;99.90
57242;DHT22;43095;53.302;5.786;2023-12-14T08:09:02;4.40;99.90
57242;DHT22;43095;53.302;5.786;2023-12-14T08:11:30;4.40;99.90
57242;DHT22;43095;53.302;5.786;2023-12-14T08:13:57;4.40;99.90
57242;DHT22;43095;53.302;5.786;2023-12-14T08:16:25;4.40;99.90
57242;DHT22;43095;53.302;5.786;2023-12-14T08:18:52;4.40;99.90
57242;DHT22;43095;53.302;5.786;2023-12-14T08:21:19;4.40;99.90
57242;DHT22;43095;53.302;5.786;2023-12-14T08:23:47;4.40;99.90
57242;DHT22;43095;53.302;5.786;2023-12-14T08:26:14;4.40;99.90
57242;DHT22;43095;53.302;5.786;2023-12-14T08:28:41;4.40;99.90
57242;DHT22;43095;53.302;5.786;2023-12-14T08:31:09;4.40;99.90
57242;DHT22;43095;53.302;5.786;2023-12-14T08:33:41;4.40;99.90
57242;DHT22;43095;53.302;5.786;2023-12-14T08:36:17;4.40;99.90
57242;DHT22;43095;53.302;5.786;2023-12-14T08:38:44;4.50;99.90
57242;DHT22;43095;53.302;5.786;2023-12-14T08:41:15;4.50;99.90
57242;DHT22;43095;53.302;5.786;2023-12-14T08:43:43;4.40;99.90
57242;DHT22;43095;53.302;5.786;2023-12-14T08:46:10;4.40;99.90
57242;DHT22;43095;53.302;5.786;2023-12-14T08:48:38;4.40;99.90
57242;DHT22;43095;53.302;5.786;2023-12-14T08:51:05;4.40;99.90
57242;DHT22;43095;53.302;5.786;2023-12-14T08:53:33;4.40;99.90
57242;DHT22;43095;53.302;5.786;2023-12-14T08:56:00;4.40;99.90
57242;DHT22;43095;53.302;5.786;2023-12-14T08:58:29;4.40;99.90
57242;DHT22;43095;53.302;5.786;2023-12-14T09:00:56;4.30;99.90
57242;DHT22;43095;53.302;5.786;2023-12-14T09:03:23;4.30;99.90
57242;DHT22;43095;53.302;5.786;2023-12-14T09:05:50;4.30;99.90
57242;DHT22;43095;53.302;5.786;2023-12-14T09:08:18;4.30;99.90
57242;DHT22;43095;53.302;5.786;2023-12-14T09:10:45;4.20;99.90
57242;DHT22;43095;53.302;5.786;2023-12-14T09:13:12;4.10;99.90
57242;DHT22;43095;53.302;5.786;2023-12-14T09:15:39;4.10;99.90
57242;DHT22;43095;53.302;5.786;2023-12-14T09:18:06;4.10;99.90
57242;DHT22;43095;53.302;5.786;2023-12-14T09:20:34;4.10;99.90
57242;DHT22;43095;53.302;5.786;2023-12-14T09:23:07;4.10;99.90
57242;DHT22;43095;53.302;5.786;2023-12-14T09:25:34;4.10;99.90
57242;DHT22;43095;53.302;5.786;2023-12-14T09:28:01;4.10;99.90
57242;DHT22;43095;53.302;5.786;2023-12-14T09:30:28;4.10;99.90
57242;DHT22;43095;53.302;5.786;2023-12-14T09:32:56;4.10;99.90
57242;DHT22;43095;53.302;5.786;2023-12-14T09:35:23;4.20;99.90
57242;DHT22;43095;53.302;5.786;2023-12-14T09:37:50;4.20;99.90
57242;DHT22;43095;53.302;5.786;2023-12-14T09:40:19;4.20;99.90
57242;DHT22;43095;53.302;5.786;2023-12-14T09:42:46;4.20;99.90
57242;DHT22;43095;53.302;5.786;2023-12-14T09:45:13;4.30;99.90
57242;DHT22;43095;53.302;5.786;2023-12-14T09:47:44;4.30;99.90
57242;DHT22;43095;53.302;5.786;2023-12-14T09:50:13;4.40;99.90
57242;DHT22;43095;53.302;5.786;2023-12-14T09:52:42;4.40;99.90
57242;DHT22;43095;53.302;5.786;2023-12-14T09:55:12;4.40;99.90
57242;DHT22;43095;53.302;5.786;2023-12-14T09:57:40;4.50;99.90
57242;DHT22;43095;53.302;5.786;2023-12-14T10:00:07;4.50;99.90
57242;DHT22;43095;53.302;5.786;2023-12-14T10:02:37;4.60;99.90
57242;DHT22;43095;53.302;5.786;2023-12-14T10:05:09;4.70;99.90
57242;DHT22;43095;53.302;5.786;2023-12-14T10:07:44;4.70;99.90
57242;DHT22;43095;53.302;5.786;2023-12-14T10:10:13;4.80;99.90
57242;DHT22;43095;53.302;5.786;2023-12-14T10:12:54;4.90;99.90
57242;DHT22;43095;53.302;5.786;2023-12-14T10:15:21;4.90;99.90
57242;DHT22;43095;53.302;5.786;2023-12-14T10:17:52;5.00;99.60
57242;DHT22;43095;53.302;5.786;2023-12-14T10:20:22;5.00;99.40
57242;DHT22;43095;53.302;5.786;2023-12-14T10:22:50;5.00;99.20
57242;DHT22;43095;53.302;5.786;2023-12-14T10:25:20;5.10;99.20
57242;DHT22;43095;53.302;5.786;2023-12-14T10:27:51;5.10;99.00
57242;DHT22;43095;53.302;5.786;2023-12-14T10:30:21;5.10;98.90
57242;DHT22;43095;53.302;5.786;2023-12-14T10:32:49;5.20;98.70
57242;DHT22;43095;53.302;5.786;2023-12-14T10:35:17;5.30;98.60
57242;DHT22;43095;53.302;5.786;2023-12-14T10:37:50;5.30;98.30
57242;DHT22;43095;53.302;5.786;2023-12-14T10:40:19;5.30;98.10
57242;DHT22;43095;53.302;5.786;2023-12-14T10:42:47;5.30;97.60
57242;DHT22;43095;53.302;5.786;2023-12-14T10:45:17;5.30;97.50
57242;DHT22;43095;53.302;5.786;2023-12-14T10:47:50;5.30;97.30
57242;DHT22;43095;53.302;5.786;2023-12-14T10:50:19;5.30;97.20
57242;DHT22;43095;53.302;5.786;2023-12-14T10:52:47;5.30;96.90
57242;DHT22;43095;53.302;5.786;2023-12-14T10:58:10;5.30;96.80
57242;DHT22;43095;53.302;5.786;2023-12-14T11:00:38;5.30;96.70
57242;DHT22;43095;53.302;5.786;2023-12-14T11:03:05;5.30;96.60
57242;DHT22;43095;53.302;5.786;2023-12-14T11:05:33;5.30;96.40
57242;DHT22;43095;53.302;5.786;2023-12-14T11:08:03;5.30;96.30
57242;DHT22;43095;53.302;5.786;2023-12-14T11:10:38;5.30;96.20
57242;DHT22;43095;53.302;5.786;2023-12-14T11:13:11;5.30;96.10
57242;DHT22;43095;53.302;5.786;2023-12-14T11:15:49;5.30;96.10
57242;DHT22;43095;53.302;5.786;2023-12-14T11:23:13;5.40;96.10
57242;DHT22;43095;53.302;5.786;2023-12-14T11:25:42;5.40;96.00
57242;DHT22;43095;53.302;5.786;2023-12-14T11:28:13;5.40;95.90
57242;DHT22;43095;53.302;5.786;2023-12-14T11:30:43;5.40;95.70
57242;DHT22;43095;53.302;5.786;2023-12-14T11:33:22;5.40;95.60
57242;DHT22;43095;53.302;5.786;2023-12-14T11:35:51;5.50;95.50
57242;DHT22;43095;53.302;5.786;2023-12-14T11:38:21;5.50;95.40
57242;DHT22;43095;53.302;5.786;2023-12-14T11:40:50;5.50;95.20
57242;DHT22;43095;53.302;5.786;2023-12-14T11:43:18;5.50;94.90
57242;DHT22;43095;53.302;5.786;2023-12-14T11:45:48;5.40;95.00
57242;DHT22;43095;53.302;5.786;2023-12-14T11:48:16;5.40;94.90
57242;DHT22;43095;53.302;5.786;2023-12-14T11:50:44;5.50;95.00
57242;DHT22;43095;53.302;5.786;2023-12-14T11:53:11;5.40;95.00
57242;DHT22;43095;53.302;5.786;2023-12-14T11:55:40;5.50;95.20
57242;DHT22;43095;53.302;5.786;2023-12-14T11:58:11;5.50;95.20
57242;DHT22;43095;53.302;5.786;2023-12-14T12:00:41;5.50;95.10
57242;DHT22;43095;53.302;5.786;2023-12-14T12:03:16;5.40;95.10
57242;DHT22;43095;53.302;5.786;2023-12-14T12:05:50;5.40;95.20
57242;DHT22;43095;53.302;5.786;2023-12-14T12:08:20;5.40;95.10
57242;DHT22;43095;53.302;5.786;2023-12-14T12:10:49;5.40;95.20
57242;DHT22;43095;53.302;5.786;2023-12-14T12:13:19;5.40;95.10
57242;DHT22;43095;53.302;5.786;2023-12-14T12:15:47;5.40;95.30
57242;DHT22;43095;53.302;5.786;2023-12-14T12:18:16;5.40;95.30
57242;DHT22;43095;53.302;5.786;2023-12-14T12:20:44;5.40;95.30
57242;DHT22;43095;53.302;5.786;2023-12-14T12:23:12;5.40;95.20
57242;DHT22;43095;53.302;5.786;2023-12-14T12:25:39;5.40;95.20
57242;DHT22;43095;53.302;5.786;2023-12-14T12:28:06;5.40;95.10
57242;DHT22;43095;53.302;5.786;2023-12-14T12:30:34;5.40;95.10
57242;DHT22;43095;53.302;5.786;2023-12-14T12:33:06;5.40;95.20
57242;DHT22;43095;53.302;5.786;2023-12-14T12:35:33;5.40;95.30
57242;DHT22;43095;53.302;5.786;2023-12-14T12:38:01;5.40;95.20
57242;DHT22;43095;53.302;5.786;2023-12-14T12:40:28;5.40;95.20
57242;DHT22;43095;53.302;5.786;2023-12-14T12:42:59;5.50;95.20
57242;DHT22;43095;53.302;5.786;2023-12-14T12:45:26;5.50;95.20
57242;DHT22;43095;53.302;5.786;2023-12-14T12:47:55;5.50;95.00
57242;DHT22;43095;53.302;5.786;2023-12-14T12:50:23;5.50;95.00
57242;DHT22;43095;53.302;5.786;2023-12-14T12:52:51;5.50;95.00
57242;DHT22;43095;53.302;5.786;2023-12-14T12:55:18;5.50;95.10
57242;DHT22;43095;53.302;5.786;2023-12-14T12:57:45;5.50;95.20
57242;DHT22;43095;53.302;5.786;2023-12-14T13:00:14;5.50;95.20
57242;DHT22;43095;53.302;5.786;2023-12-14T13:02:43;5.50;95.20
57242;DHT22;43095;53.302;5.786;2023-12-14T13:05:12;5.50;95.20
57242;DHT22;43095;53.302;5.786;2023-12-14T13:07:45;5.50;95.20
57242;DHT22;43095;53.302;5.786;2023-12-14T13:10:14;5.50;95.20
57242;DHT22;43095;53.302;5.786;2023-12-14T13:12:56;5.50;95.20
57242;DHT22;43095;53.302;5.786;2023-12-14T13:15:24;5.50;95.20
57242;DHT22;43095;53.302;5.786;2023-12-14T13:17:53;5.50;95.20
57242;DHT22;43095;53.302;5.786;2023-12-14T13:20:21;5.50;95.10
57242;DHT22;43095;53.302;5.786;2023-12-14T13:22:49;5.50;95.10
57242;DHT22;43095;53.302;5.786;2023-12-14T13:25:16;5.50;95.00
57242;DHT22;43095;53.302;5.786;2023-12-14T13:27:44;5.50;95.10
57242;DHT22;43095;53.302;5.786;2023-12-14T13:30:11;5.50;95.00
57242;DHT22;43095;53.302;5.786;2023-12-14T13:32:44;5.50;95.00
57242;DHT22;43095;53.302;5.786;2023-12-14T13:35:12;5.50;94.90
57242;DHT22;43095;53.302;5.786;2023-12-14T13:37:39;5.50;94.90
57242;DHT22;43095;53.302;5.786;2023-12-14T13:40:07;5.40;94.90
57242;DHT22;43095;53.302;5.786;2023-12-14T13:42:36;5.40;95.00
57242;DHT22;43095;53.302;5.786;2023-12-14T13:45:20;5.50;95.10
57242;DHT22;43095;53.302;5.786;2023-12-14T13:47:47;5.50;95.20
57242;DHT22;43095;53.302;5.786;2023-12-14T13:50:15;5.50;95.10
57242;DHT22;43095;53.302;5.786;2023-12-14T13:52:43;5.50;94.90
57242;DHT22;43095;53.302;5.786;2023-12-14T13:55:10;5.60;94.80
57242;DHT22;43095;53.302;5.786;2023-12-14T13:57:37;5.60;94.70
57242;DHT22;43095;53.302;5.786;2023-12-14T14:00:05;5.60;94.60
57242;DHT22;43095;53.302;5.786;2023-12-14T14:02:34;5.60;94.30
57242;DHT22;43095;53.302;5.786;2023-12-14T14:05:01;5.50;94.10
57242;DHT22;43095;53.302;5.786;2023-12-14T14:07:28;5.50;94.00
57242;DHT22;43095;53.302;5.786;2023-12-14T14:09:55;5.40;93.90
57242;DHT22;43095;53.302;5.786;2023-12-14T14:12:22;5.30;93.90
57242;DHT22;43095;53.302;5.786;2023-12-14T14:14:49;5.30;94.00
57242;DHT22;43095;53.302;5.786;2023-12-14T14:17:17;5.30;94.10
57242;DHT22;43095;53.302;5.786;2023-12-14T14:19:44;5.30;94.20
57242;DHT22;43095;53.302;5.786;2023-12-14T14:22:11;5.30;94.20
57242;DHT22;43095;53.302;5.786;2023-12-14T14:24:38;5.20;94.20
57242;DHT22;43095;53.302;5.786;2023-12-14T14:27:05;5.20;94.20
57242;DHT22;43095;53.302;5.786;2023-12-14T14:29:32;5.10;94.20
57242;DHT22;43095;53.302;5.786;2023-12-14T14:32:00;5.10;94.30
57242;DHT22;43095;53.302;5.786;2023-12-14T14:34:27;5.10;94.40
57242;DHT22;43095;53.302;5.786;2023-12-14T14:36:54;5.10;94.50
57242;DHT22;43095;53.302;5.786;2023-12-14T14:39:21;5.00;94.50
57242;DHT22;43095;53.302;5.786;2023-12-14T14:41:48;5.00;94.60
57242;DHT22;43095;53.302;5.786;2023-12-14T14:44:16;5.00;94.70
57242;DHT22;43095;53.302;5.786;2023-12-14T14:46:44;5.00;94.80
57242;DHT22;43095;53.302;5.786;2023-12-14T14:49:11;4.90;94.90
57242;DHT22;43095;53.302;5.786;2023-12-14T14:51:38;4.90;95.00
57242;DHT22;43095;53.302;5.786;2023-12-14T14:54:05;4.90;95.20
57242;DHT22;43095;53.302;5.786;2023-12-14T14:56:32;4.90;95.30
57242;DHT22;43095;53.302;5.786;2023-12-14T14:58:59;4.80;95.40
57242;DHT22;43095;53.302;5.786;2023-12-14T15:01:26;4.80;95.40
57242;DHT22;43095;53.302;5.786;2023-12-14T15:03:54;4.70;95.50
57242;DHT22;43095;53.302;5.786;2023-12-14T15:06:21;4.70;95.60
57242;DHT22;43095;53.302;5.786;2023-12-14T15:08:49;4.70;95.70
57242;DHT22;43095;53.302;5.786;2023-12-14T15:11:17;4.70;95.80
57242;DHT22;43095;53.302;5.786;2023-12-14T15:13:44;4.70;96.00
57242;DHT22;43095;53.302;5.786;2023-12-14T15:16:11;4.70;96.00
57242;DHT22;43095;53.302;5.786;2023-12-14T15:18:38;4.70;96.10
57242;DHT22;43095;53.302;5.786;2023-12-14T15:21:13;4.70;96.30
57242;DHT22;43095;53.302;5.786;2023-12-14T15:23:43;4.70;96.40
57242;DHT22;43095;53.302;5.786;2023-12-14T15:26:11;4.70;96.40
57242;DHT22;43095;53.302;5.786;2023-12-14T15:28:39;4.70;96.50
57242;DHT22;43095;53.302;5.786;2023-12-14T15:31:06;4.70;96.60
57242;DHT22;43095;53.302;5.786;2023-12-14T15:33:34;4.60;96.70
57242;DHT22;43095;53.302;5.786;2023-12-14T15:36:01;4.60;96.90
57242;DHT22;43095;53.302;5.786;2023-12-14T15:38:28;4.60;96.90
57242;DHT22;43095;53.302;5.786;2023-12-14T15:40:55;4.60;97.10
57242;DHT22;43095;53.302;5.786;2023-12-14T15:43:23;4.60;97.10
57242;DHT22;43095;53.302;5.786;2023-12-14T15:45:50;4.60;97.30
57242;DHT22;43095;53.302;5.786;2023-12-14T15:48:17;4.60;97.40
57242;DHT22;43095;53.302;5.786;2023-12-14T15:50:45;4.60;97.50
57242;DHT22;43095;53.302;5.786;2023-12-14T15:53:13;4.60;97.60
57242;DHT22;43095;53.302;5.786;2023-12-14T15:55:41;4.50;97.80
57242;DHT22;43095;53.302;5.786;2023-12-14T15:58:08;4.60;97.80